createdAt,value
2022-08-05T00:01:19.971Z,15.34
2022-08-05T00:03:58.323Z,15.29
2022-08-05T00:06:38.324Z,15.24
2022-08-05T00:09:13.161Z,15.24
2022-08-05T00:12:02.323Z,15.24
2022-08-05T00:14:42.328Z,15.22
2022-08-05T00:17:36.315Z,15.18
2022-08-05T00:20:29.049Z,15.12
2022-08-05T00:23:12.872Z,15.11
2022-08-05T00:26:01.421Z,15.07
2022-08-05T00:28:35.448Z,15.08
2022-08-05T00:31:53.255Z,15.07
2022-08-05T00:34:53.307Z,15.04
2022-08-05T00:37:53.133Z,14.98
2022-08-05T00:40:40.367Z,14.93
2022-08-05T00:43:27.508Z,14.88
2022-08-05T00:46:42.456Z,14.89
2022-08-05T00:49:19.381Z,14.89
2022-08-05T00:52:06.389Z,14.89
2022-08-05T00:54:46.392Z,14.86
2022-08-05T00:57:55.435Z,14.82
2022-08-05T01:00:33.392Z,14.78
2022-08-05T01:03:30.952Z,14.75
2022-08-05T01:06:20.390Z,14.74
2022-08-05T01:09:06.287Z,14.72
2022-08-05T01:12:09.124Z,14.70
2022-08-05T01:14:56.903Z,14.70
2022-08-05T01:17:53.796Z,14.70
2022-08-05T01:20:46.483Z,14.70
2022-08-05T01:24:02.398Z,14.71
2022-08-05T01:27:24.325Z,14.70
2022-08-05T01:30:20.391Z,14.68
2022-08-05T01:33:25.157Z,14.63
2022-08-05T01:36:02.487Z,14.59
2022-08-05T01:38:50.905Z,14.57
2022-08-05T01:41:27.453Z,14.54
2022-08-05T01:44:15.428Z,14.48
2022-08-05T01:46:50.479Z,14.46
2022-08-05T01:50:00.446Z,14.47
2022-08-05T01:52:36.490Z,14.46
2022-08-05T01:55:27.363Z,14.44
2022-08-05T01:58:14.960Z,14.40
2022-08-05T02:01:05.367Z,14.36
2022-08-05T02:03:44.483Z,14.35
2022-08-05T02:06:37.720Z,14.32
2022-08-05T02:09:20.453Z,14.28
2022-08-05T02:12:14.391Z,14.23
2022-08-05T02:15:23.381Z,14.19
2022-08-05T02:18:32.446Z,14.17
2022-08-05T02:21:31.375Z,14.14
2022-08-05T02:24:23.548Z,14.15
2022-08-05T02:27:13.377Z,14.16
2022-08-05T02:30:00.060Z,14.17
2022-08-05T02:32:48.395Z,14.14
2022-08-05T02:35:28.216Z,14.11
2022-08-05T02:38:35.152Z,14.09
2022-08-05T02:41:36.423Z,14.07
2022-08-05T02:44:40.392Z,14.03
2022-08-05T02:47:17.500Z,13.97
2022-08-05T02:50:05.433Z,13.95
2022-08-05T02:52:41.632Z,13.92
2022-08-05T02:55:53.716Z,13.91
2022-08-05T02:58:30.566Z,13.89
2022-08-05T03:01:30.422Z,13.87
2022-08-05T03:04:23.082Z,13.85
2022-08-05T03:06:59.408Z,13.82
2022-08-05T03:09:51.714Z,13.79
2022-08-05T03:12:42.501Z,13.79
2022-08-05T03:15:29.424Z,13.79
2022-08-05T03:18:02.488Z,13.75
2022-08-05T03:20:50.427Z,13.76
2022-08-05T03:23:24.041Z,13.77
2022-08-05T03:26:31.390Z,13.77
2022-08-05T03:29:12.322Z,13.81
2022-08-05T03:32:04.417Z,13.80
2022-08-05T03:34:42.498Z,13.82
2022-08-05T03:37:46.657Z,13.85
2022-08-05T03:40:33.463Z,13.86
2022-08-05T03:44:08.816Z,13.87
2022-08-05T03:46:23.425Z,13.87
2022-08-05T03:49:02.512Z,13.86
2022-08-05T03:52:38.454Z,13.86
2022-08-05T03:55:34.462Z,13.82
2022-08-05T03:58:02.436Z,13.79
2022-08-05T04:00:42.511Z,13.77
2022-08-05T04:03:29.458Z,13.75
2022-08-05T04:06:10.530Z,13.74
2022-08-05T04:08:51.447Z,13.73
2022-08-05T04:11:50.801Z,13.69
2022-08-05T04:14:29.962Z,13.65
2022-08-05T04:17:18.445Z,13.64
2022-08-05T04:19:54.525Z,13.66
2022-08-05T04:22:45.446Z,13.66
2022-08-05T04:25:18.504Z,13.66
2022-08-05T04:28:13.000Z,13.67
2022-08-05T04:30:46.511Z,13.71
2022-08-05T04:34:17.376Z,13.73
2022-08-05T04:36:46.444Z,13.75
2022-08-05T04:39:35.749Z,13.78
2022-08-05T04:42:16.459Z,13.84
2022-08-05T04:45:10.476Z,13.93
2022-08-05T04:48:26.994Z,14.05
2022-08-05T04:51:03.496Z,14.14
2022-08-05T04:53:58.477Z,14.28
2022-08-05T04:56:37.191Z,14.43
2022-08-05T04:59:36.636Z,14.59
2022-08-05T05:02:41.547Z,14.78
2022-08-05T05:05:32.449Z,14.97
2022-08-05T05:08:42.769Z,15.17
2022-08-05T05:11:24.458Z,15.35
2022-08-05T05:14:38.474Z,15.55
2022-08-05T05:17:56.264Z,15.76
2022-08-05T05:20:30.566Z,15.95
2022-08-05T05:23:19.504Z,16.13
2022-08-05T05:26:07.484Z,16.28
2022-08-05T05:29:02.404Z,16.47
2022-08-05T05:31:49.465Z,16.63
2022-08-05T05:34:26.776Z,16.81
2022-08-05T05:37:21.632Z,16.96
2022-08-05T05:40:36.487Z,17.14
2022-08-05T05:43:57.014Z,17.30
2022-08-05T05:46:18.833Z,17.47
2022-08-05T05:49:06.485Z,17.61
2022-08-05T05:51:55.608Z,17.78
2022-08-05T05:54:50.537Z,17.94
2022-08-05T05:57:24.671Z,18.11
2022-08-05T06:00:34.235Z,18.25
2022-08-05T06:03:39.695Z,18.41
2022-08-05T06:06:09.507Z,18.52
2022-08-05T06:08:50.499Z,18.68
2022-08-05T06:11:23.567Z,18.84
2022-08-05T06:14:10.505Z,18.98
2022-08-05T06:16:43.557Z,19.12
2022-08-05T06:19:35.070Z,19.25
2022-08-05T06:22:20.507Z,19.41
2022-08-05T06:25:24.346Z,19.55
2022-08-05T06:28:21.249Z,19.70
2022-08-05T06:31:18.131Z,19.86
2022-08-05T06:34:15.803Z,20.01
2022-08-05T06:37:13.536Z,20.15
2022-08-05T06:40:02.593Z,20.28
2022-08-05T06:42:35.584Z,20.42
2022-08-05T06:46:03.395Z,20.53
2022-08-05T06:48:53.041Z,20.68
2022-08-05T06:51:29.723Z,20.81
2022-08-05T06:54:05.851Z,20.95
2022-08-05T06:57:56.648Z,21.04
2022-08-05T06:59:48.507Z,21.18
2022-08-05T07:02:54.506Z,21.26
2022-08-05T07:05:37.181Z,21.37
2022-08-05T07:08:25.145Z,21.43
2022-08-05T07:10:58.636Z,21.58
2022-08-05T07:14:04.548Z,21.65
2022-08-05T07:18:00.457Z,21.77
2022-08-05T07:20:32.429Z,21.85
2022-08-05T07:22:58.658Z,22.00
2022-08-05T07:25:56.388Z,22.19
2022-08-05T07:28:36.611Z,22.33
2022-08-05T07:31:16.551Z,22.48
2022-08-05T07:33:56.620Z,22.57
2022-08-05T07:36:53.548Z,22.67
2022-08-05T07:40:04.529Z,22.77
2022-08-05T07:42:57.578Z,22.88
2022-08-05T07:45:57.428Z,23.05
2022-08-05T07:49:02.944Z,23.24
2022-08-05T07:51:41.065Z,23.44
2022-08-05T07:54:31.130Z,23.65
2022-08-05T07:57:56.229Z,23.83
2022-08-05T08:00:16.777Z,24.01
2022-08-05T08:03:14.229Z,24.23
2022-08-05T08:05:52.288Z,24.39
2022-08-05T08:08:39.594Z,24.54
2022-08-05T08:11:15.903Z,24.71
2022-08-05T08:14:02.577Z,24.76
2022-08-05T08:16:51.190Z,24.91
2022-08-05T08:20:22.989Z,25.03
2022-08-05T08:22:33.739Z,25.24
2022-08-05T08:25:27.164Z,25.37
2022-08-05T08:28:36.849Z,25.56
2022-08-05T08:31:34.577Z,25.68
2022-08-05T08:34:30.671Z,25.81
2022-08-05T08:37:06.661Z,25.96
2022-08-05T08:39:53.678Z,26.06
2022-08-05T08:42:46.857Z,26.17
2022-08-05T08:45:45.595Z,26.31
2022-08-05T08:49:02.462Z,26.40
2022-08-05T08:52:03.048Z,26.57
2022-08-05T08:54:54.609Z,26.68
2022-08-05T08:57:58.016Z,26.82
2022-08-05T09:00:31.741Z,26.94
2022-08-05T09:03:19.265Z,26.99
2022-08-05T09:06:07.539Z,27.05
2022-08-05T09:09:02.632Z,27.13
2022-08-05T09:12:01.243Z,27.21
2022-08-05T09:15:06.431Z,27.29
2022-08-05T09:17:49.631Z,27.39
2022-08-05T09:20:37.338Z,27.42
2022-08-05T09:23:21.676Z,27.53
2022-08-05T09:26:20.699Z,27.53
2022-08-05T09:29:08.831Z,27.50
2022-08-05T09:32:41.708Z,27.48
2022-08-05T09:34:55.121Z,27.33
2022-08-05T09:38:17.977Z,27.19
2022-08-05T09:41:03.656Z,27.09
2022-08-05T09:43:50.616Z,27.04
2022-08-05T09:46:51.751Z,27.00
2022-08-05T09:50:01.350Z,26.94
2022-08-05T09:52:44.880Z,26.93
2022-08-05T09:55:56.586Z,26.94
2022-08-05T09:58:34.637Z,27.00
2022-08-05T10:01:31.610Z,26.98
2022-08-05T10:04:29.235Z,26.99
2022-08-05T10:08:10.802Z,27.04
2022-08-05T10:10:32.408Z,27.23
2022-08-05T10:13:12.741Z,27.22
2022-08-05T10:15:57.666Z,27.23
2022-08-05T10:18:38.784Z,27.15
2022-08-05T10:21:20.663Z,27.22
2022-08-05T10:24:07.580Z,27.19
2022-08-05T10:26:52.901Z,27.17
2022-08-05T10:30:06.867Z,27.24
2022-08-05T10:33:01.341Z,27.39
2022-08-05T10:35:59.000Z,27.42
2022-08-05T10:38:57.708Z,27.42
2022-08-05T10:42:02.654Z,27.49
2022-08-05T10:44:39.200Z,27.55
2022-08-05T10:47:39.694Z,27.52
2022-08-05T10:50:36.648Z,27.48
2022-08-05T10:54:23.229Z,27.42
2022-08-05T10:57:05.704Z,27.37
2022-08-05T11:00:04.465Z,27.30
2022-08-05T11:02:50.741Z,27.26
2022-08-05T11:05:37.737Z,27.21
2022-08-05T11:08:37.415Z,27.18
2022-08-05T11:11:52.267Z,27.16
2022-08-05T11:15:11.722Z,27.14
2022-08-05T11:17:59.992Z,27.08
2022-08-05T11:20:41.811Z,27.06
2022-08-05T11:24:05.500Z,27.06
2022-08-05T11:27:51.059Z,27.06
2022-08-05T11:30:31.730Z,27.08
2022-08-05T11:33:46.026Z,27.13
2022-08-05T11:37:00.722Z,27.19
2022-08-05T11:40:08.731Z,27.27
2022-08-05T11:43:02.724Z,27.37
2022-08-05T11:46:16.108Z,27.49
2022-08-05T11:48:48.819Z,27.70
2022-08-05T11:51:43.623Z,27.82
2022-08-05T11:54:33.619Z,27.90
2022-08-05T11:57:25.635Z,28.03
2022-08-05T12:00:07.734Z,28.09
2022-08-05T12:03:01.798Z,28.19
2022-08-05T12:05:48.746Z,28.27
2022-08-05T12:08:21.803Z,28.21
2022-08-05T12:11:20.313Z,28.17
2022-08-05T12:14:11.808Z,28.13
2022-08-05T12:16:58.761Z,28.15
2022-08-05T12:20:25.628Z,28.15
2022-08-05T12:22:41.739Z,28.13
2022-08-05T12:25:28.513Z,28.15
2022-08-05T12:28:22.769Z,28.13
2022-08-05T12:31:33.649Z,28.06
2022-08-05T12:34:41.759Z,27.96
2022-08-05T12:37:38.748Z,27.86
2022-08-05T12:40:31.736Z,27.77
2022-08-05T12:43:11.763Z,27.74
2022-08-05T12:46:14.760Z,27.78
2022-08-05T12:49:25.505Z,27.80
2022-08-05T12:52:23.782Z,27.82
2022-08-05T12:55:07.840Z,27.90
2022-08-05T12:58:51.533Z,27.93
2022-08-05T13:02:01.735Z,27.96
2022-08-05T13:04:11.783Z,27.97
2022-08-05T13:06:58.770Z,27.95
2022-08-05T13:09:34.854Z,27.93
2022-08-05T13:12:22.772Z,27.90
2022-08-05T13:15:06.858Z,27.81
2022-08-05T13:18:04.790Z,27.66
2022-08-05T13:20:41.879Z,27.62
2022-08-05T13:23:29.795Z,27.62
2022-08-05T13:26:09.774Z,27.64
2022-08-05T13:28:59.316Z,27.64
2022-08-05T13:32:04.226Z,27.66
2022-08-05T13:34:53.817Z,27.67
2022-08-05T13:37:47.804Z,27.67
2022-08-05T13:40:52.016Z,27.64
2022-08-05T13:43:44.683Z,27.65
2022-08-05T13:47:01.909Z,27.68
2022-08-05T13:49:45.087Z,27.64
2022-08-05T13:52:37.980Z,27.58
2022-08-05T13:55:40.815Z,27.59
2022-08-05T13:58:23.271Z,27.60
2022-08-05T14:01:17.817Z,27.59
2022-08-05T14:04:10.854Z,27.63
2022-08-05T14:07:11.977Z,27.60
2022-08-05T14:09:57.852Z,27.59
2022-08-05T14:12:54.588Z,27.54
2022-08-05T14:16:07.798Z,27.56
2022-08-05T14:19:04.261Z,27.54
2022-08-05T14:22:09.178Z,27.48
2022-08-05T14:24:44.923Z,27.48
2022-08-05T14:27:33.843Z,27.46
2022-08-05T14:30:19.988Z,27.43
2022-08-05T14:33:22.577Z,27.36
2022-08-05T14:36:10.842Z,27.31
2022-08-05T14:38:43.921Z,27.29
2022-08-05T14:41:30.832Z,27.29
2022-08-05T14:44:09.707Z,27.29
2022-08-05T14:46:58.847Z,27.23
2022-08-05T14:49:56.362Z,27.19
2022-08-05T14:52:51.926Z,27.18
2022-08-05T14:55:39.495Z,27.20
2022-08-05T14:58:16.028Z,27.25
2022-08-05T15:01:02.871Z,27.29
2022-08-05T15:03:39.146Z,27.29
2022-08-05T15:06:27.927Z,27.24
2022-08-05T15:09:03.854Z,27.20
2022-08-05T15:11:53.483Z,27.18
2022-08-05T15:14:34.595Z,27.15
2022-08-05T15:17:46.684Z,27.06
2022-08-05T15:20:24.765Z,27.03
2022-08-05T15:23:13.862Z,26.98
2022-08-05T15:25:53.408Z,27.03
2022-08-05T15:28:43.870Z,27.08
2022-08-05T15:31:34.741Z,27.16
2022-08-05T15:34:33.243Z,27.16
2022-08-05T15:37:19.347Z,27.16
2022-08-05T15:41:01.188Z,27.13
2022-08-05T15:43:45.737Z,27.07
2022-08-05T15:46:33.882Z,27.04
2022-08-05T15:49:10.612Z,27.03
2022-08-05T15:52:13.397Z,27.00
2022-08-05T15:54:48.950Z,26.97
2022-08-05T15:57:37.905Z,26.95
2022-08-05T16:00:26.525Z,26.97
2022-08-05T16:03:21.925Z,26.99
2022-08-05T16:05:55.836Z,26.97
2022-08-05T16:08:45.876Z,26.92
2022-08-05T16:11:40.190Z,26.90
2022-08-05T16:14:22.932Z,26.86
2022-08-05T16:17:03.100Z,26.80
2022-08-05T16:20:03.172Z,26.80
2022-08-05T16:22:44.047Z,26.81
2022-08-05T16:25:23.933Z,26.85
2022-08-05T16:28:13.897Z,26.84
2022-08-05T16:30:56.931Z,26.85
2022-08-05T16:33:43.944Z,26.88
2022-08-05T16:36:20.531Z,26.92
2022-08-05T16:39:21.017Z,26.93
2022-08-05T16:42:18.493Z,26.92
2022-08-05T16:46:04.130Z,26.93
2022-08-05T16:48:05.917Z,26.93
2022-08-05T16:50:59.944Z,26.91
2022-08-05T16:54:03.885Z,26.89
2022-08-05T16:56:46.942Z,26.86
2022-08-05T17:00:00.378Z,26.82
2022-08-05T17:02:38.943Z,26.77
2022-08-05T17:05:32.952Z,26.71
2022-08-05T17:08:35.864Z,26.66
2022-08-05T17:11:25.275Z,26.59
2022-08-05T17:14:34.275Z,26.46
2022-08-05T17:17:15.136Z,26.36
2022-08-05T17:20:01.983Z,26.25
2022-08-05T17:22:35.061Z,26.19
2022-08-05T17:25:39.851Z,26.12
2022-08-05T17:28:20.954Z,26.04
2022-08-05T17:31:24.505Z,25.94
2022-08-05T17:34:29.990Z,25.78
2022-08-05T17:37:37.686Z,25.70
2022-08-05T17:40:16.078Z,25.56
2022-08-05T17:42:53.583Z,25.50
2022-08-05T17:45:40.966Z,25.40
2022-08-05T17:48:14.230Z,25.32
2022-08-05T17:51:09.207Z,25.25
2022-08-05T17:53:43.070Z,25.13
2022-08-05T17:56:38.007Z,25.01
2022-08-05T17:59:12.084Z,24.93
2022-08-05T18:01:59.029Z,24.86
2022-08-05T18:04:32.141Z,24.76
2022-08-05T18:07:22.953Z,24.67
2022-08-05T18:09:59.066Z,24.58
2022-08-05T18:12:47.043Z,24.53
2022-08-05T18:15:27.166Z,24.44
2022-08-05T18:18:14.213Z,24.37
2022-08-05T18:20:57.024Z,24.31
2022-08-05T18:23:53.761Z,24.25
2022-08-05T18:26:44.067Z,24.16
2022-08-05T18:29:17.127Z,24.10
2022-08-05T18:32:04.027Z,24.03
2022-08-05T18:34:40.643Z,23.97
2022-08-05T18:37:34.365Z,23.91
2022-08-05T18:41:56.780Z,23.86
2022-08-05T18:43:38.293Z,23.80
2022-08-05T18:46:26.067Z,23.73
2022-08-05T18:49:30.350Z,23.65
2022-08-05T18:52:36.293Z,23.56
2022-08-05T18:55:13.096Z,23.46
2022-08-05T18:58:03.501Z,23.39
2022-08-05T19:00:37.175Z,23.33
2022-08-05T19:03:52.743Z,23.25
2022-08-05T19:06:20.105Z,23.19
2022-08-05T19:09:09.078Z,23.11
2022-08-05T19:12:00.129Z,23.05
2022-08-05T19:15:00.953Z,23.00
2022-08-05T19:18:08.516Z,22.92
2022-08-05T19:20:52.084Z,22.86
2022-08-05T19:24:05.273Z,22.79
2022-08-05T19:26:55.461Z,22.69
2022-08-05T19:29:36.428Z,22.65
2022-08-05T19:32:27.752Z,22.59
2022-08-05T19:35:06.429Z,22.55
2022-08-05T19:38:06.363Z,22.48
2022-08-05T19:41:07.076Z,22.40
2022-08-05T19:44:06.019Z,22.32
2022-08-05T19:46:53.075Z,22.23
2022-08-05T19:49:40.054Z,22.16
2022-08-05T19:52:30.718Z,22.05
2022-08-05T19:56:14.353Z,21.93
2022-08-05T19:58:29.447Z,21.86
2022-08-05T20:01:10.132Z,21.79
2022-08-05T20:03:50.221Z,21.72
2022-08-05T20:06:34.906Z,21.68
2022-08-05T20:09:26.211Z,21.61
2022-08-05T20:12:09.073Z,21.53
2022-08-05T20:14:52.069Z,21.47
2022-08-05T20:17:33.718Z,21.42
2022-08-05T20:20:17.170Z,21.39
2022-08-05T20:22:57.075Z,21.40
2022-08-05T20:25:40.231Z,21.36
2022-08-05T20:28:21.080Z,21.28
2022-08-05T20:31:03.078Z,21.23
2022-08-05T20:33:42.508Z,21.18
2022-08-05T20:36:31.077Z,21.14
2022-08-05T20:39:06.322Z,21.10
2022-08-05T20:42:01.081Z,21.05
2022-08-05T20:44:37.794Z,21.02
2022-08-05T20:47:31.787Z,20.97
2022-08-05T20:50:07.438Z,20.92
2022-08-05T20:52:55.090Z,20.88
2022-08-05T20:55:56.247Z,20.81
2022-08-05T20:58:36.099Z,20.77
2022-08-05T21:01:18.194Z,20.73
2022-08-05T21:04:20.095Z,20.67
2022-08-05T21:07:15.092Z,20.62
2022-08-05T21:10:09.104Z,20.58
2022-08-05T21:13:11.077Z,20.55
2022-08-05T21:15:56.122Z,20.49
2022-08-05T21:18:50.129Z,20.46
2022-08-05T21:21:44.317Z,20.43
2022-08-05T21:24:24.205Z,20.40
2022-08-05T21:27:11.106Z,20.33
2022-08-05T21:29:48.433Z,20.29
2022-08-05T21:32:32.363Z,20.25
2022-08-05T21:35:18.371Z,20.20
2022-08-05T21:38:13.548Z,20.16
2022-08-05T21:41:07.088Z,20.11
2022-08-05T21:44:03.623Z,20.05
2022-08-05T21:46:46.138Z,20.01
2022-08-05T21:50:00.348Z,19.95
2022-08-05T21:52:58.791Z,19.93
2022-08-05T21:56:04.608Z,19.87
2022-08-05T21:58:58.005Z,19.81
2022-08-05T22:01:35.422Z,19.79
2022-08-05T22:04:25.476Z,19.76
2022-08-05T22:07:02.185Z,19.70
2022-08-05T22:09:49.160Z,19.67
2022-08-05T22:12:26.443Z,19.66
2022-08-05T22:16:02.755Z,19.66
2022-08-05T22:18:13.200Z,19.64
2022-08-05T22:21:03.942Z,19.57
2022-08-05T22:24:01.921Z,19.53
2022-08-05T22:27:10.958Z,19.51
2022-08-05T22:29:57.166Z,19.49
2022-08-05T22:32:52.142Z,19.47
2022-08-05T22:35:48.845Z,19.41
2022-08-05T22:38:23.206Z,19.39
2022-08-05T22:41:12.158Z,19.37
2022-08-05T22:43:48.248Z,19.34
2022-08-05T22:46:40.114Z,19.29
2022-08-05T22:50:18.233Z,19.22
2022-08-05T22:52:30.637Z,19.17
2022-08-05T22:55:19.399Z,19.11
2022-08-05T22:58:17.204Z,19.08
2022-08-05T23:01:22.226Z,19.05
2022-08-05T23:04:22.162Z,19.01
2022-08-05T23:07:02.173Z,18.96
2022-08-05T23:09:57.404Z,18.90
2022-08-05T23:12:46.168Z,18.87
2022-08-05T23:15:19.384Z,18.84
2022-08-05T23:18:11.725Z,18.78
2022-08-05T23:20:56.193Z,18.75
2022-08-05T23:23:52.163Z,18.72
2022-08-05T23:26:46.184Z,18.68
2022-08-05T23:29:41.167Z,18.65
2022-08-05T23:32:28.576Z,18.63
2022-08-05T23:35:09.175Z,18.61
2022-08-05T23:37:56.153Z,18.57
2022-08-05T23:40:29.295Z,18.53
2022-08-05T23:43:25.604Z,18.49
2022-08-05T23:46:21.251Z,18.45
2022-08-05T23:49:16.182Z,18.43
2022-08-05T23:52:10.106Z,18.40
2022-08-05T23:54:57.177Z,18.38
2022-08-05T23:57:31.264Z,18.33
